sensor_id;sensor_type;location;lat;lon;timestamp;P1;P2;P0
48893;PMS5003;34710;35.798;139.446;2022-10-16T00:01:49;24;18;
48893;PMS5003;34710;35.798;139.446;2022-10-16T00:04:18;23;17;
48893;PMS5003;34710;35.798;139.446;2022-10-16T00:06:47;24;19;
48893;PMS5003;34710;35.798;139.446;2022-10-16T00:09:16;24;19;
48893;PMS5003;34710;35.798;139.446;2022-10-16T00:11:46;18;17;
48893;PMS5003;34710;35.798;139.446;2022-10-16T00:14:15;14;11;
48893;PMS5003;34710;35.798;139.446;2022-10-16T00:16:45;28;16;
48893;PMS5003;34710;35.798;139.446;2022-10-16T00:19:13;23;19;
48893;PMS5003;34710;35.798;139.446;2022-10-16T00:21:43;19;17;
48893;PMS5003;34710;35.798;139.446;2022-10-16T00:24:12;18;16;
48893;PMS5003;34710;35.798;139.446;2022-10-16T00:26:42;17;13;
48893;PMS5003;34710;35.798;139.446;2022-10-16T00:29:11;17;15;
48893;PMS5003;34710;35.798;139.446;2022-10-16T00:31:40;15;14;
48893;PMS5003;34710;35.798;139.446;2022-10-16T00:34:09;16;14;
48893;PMS5003;34710;35.798;139.446;2022-10-16T00:36:39;29;16;
48893;PMS5003;34710;35.798;139.446;2022-10-16T00:39:08;26;15;
48893;PMS5003;34710;35.798;139.446;2022-10-16T00:41:37;17;16;
48893;PMS5003;34710;35.798;139.446;2022-10-16T00:44:41;18;16;
48893;PMS5003;34710;35.798;139.446;2022-10-16T00:47:18;19;17;
48893;PMS5003;34710;35.798;139.446;2022-10-16T00:49:50;17;16;
48893;PMS5003;34710;35.798;139.446;2022-10-16T00:52:23;17;14;
48893;PMS5003;34710;35.798;139.446;2022-10-16T00:54:53;19;14;
48893;PMS5003;34710;35.798;139.446;2022-10-16T00:57:24;19;16;
48893;PMS5003;34710;35.798;139.446;2022-10-16T00:59:54;13;12;
48893;PMS5003;34710;35.798;139.446;2022-10-16T01:02:24;23;14;
48893;PMS5003;34710;35.798;139.446;2022-10-16T01:04:53;17;14;
48893;PMS5003;34710;35.798;139.446;2022-10-16T01:07:27;14;13;
48893;PMS5003;34710;35.798;139.446;2022-10-16T01:10:07;20;16;
48893;PMS5003;34710;35.798;139.446;2022-10-16T01:12:46;20;15;
48893;PMS5003;34710;35.798;139.446;2022-10-16T01:15:24;18;13;
48893;PMS5003;34710;35.798;139.446;2022-10-16T01:17:59;18;14;
48893;PMS5003;34710;35.798;139.446;2022-10-16T01:20:33;13;11;
48893;PMS5003;34710;35.798;139.446;2022-10-16T01:23:13;12;10;
48893;PMS5003;34710;35.798;139.446;2022-10-16T01:25:55;14;11;
48893;PMS5003;34710;35.798;139.446;2022-10-16T01:28:40;10;10;
48893;PMS5003;34710;35.798;139.446;2022-10-16T01:31:15;19;16;
48893;PMS5003;34710;35.798;139.446;2022-10-16T01:33:51;12;11;
48893;PMS5003;34710;35.798;139.446;2022-10-16T01:36:29;13;11;
48893;PMS5003;34710;35.798;139.446;2022-10-16T01:39:03;13;9;
48893;PMS5003;34710;35.798;139.446;2022-10-16T01:41:37;20;11;
48893;PMS5003;34710;35.798;139.446;2022-10-16T01:44:11;13;9;
48893;PMS5003;34710;35.798;139.446;2022-10-16T01:46:46;13;11;
48893;PMS5003;34710;35.798;139.446;2022-10-16T01:49:18;13;10;
48893;PMS5003;34710;35.798;139.446;2022-10-16T01:51:49;15;11;
48893;PMS5003;34710;35.798;139.446;2022-10-16T01:54:23;14;11;
48893;PMS5003;34710;35.798;139.446;2022-10-16T01:56:56;15;11;
48893;PMS5003;34710;35.798;139.446;2022-10-16T01:59:27;25;14;
48893;PMS5003;34710;35.798;139.446;2022-10-16T02:02:05;11;11;
48893;PMS5003;34710;35.798;139.446;2022-10-16T02:04:39;16;13;
48893;PMS5003;34710;35.798;139.446;2022-10-16T02:07:11;15;15;
48893;PMS5003;34710;35.798;139.446;2022-10-16T02:09:41;14;14;
48893;PMS5003;34710;35.798;139.446;2022-10-16T02:12:12;19;13;
48893;PMS5003;34710;35.798;139.446;2022-10-16T02:14:47;13;12;
48893;PMS5003;34710;35.798;139.446;2022-10-16T02:17:18;13;13;
48893;PMS5003;34710;35.798;139.446;2022-10-16T02:19:49;14;13;
48893;PMS5003;34710;35.798;139.446;2022-10-16T02:22:21;13;11;
48893;PMS5003;34710;35.798;139.446;2022-10-16T02:24:57;14;12;
48893;PMS5003;34710;35.798;139.446;2022-10-16T02:27:31;16;15;
48893;PMS5003;34710;35.798;139.446;2022-10-16T02:30:06;14;10;
48893;PMS5003;34710;35.798;139.446;2022-10-16T02:32:41;16;12;
48893;PMS5003;34710;35.798;139.446;2022-10-16T02:35:13;13;13;
48893;PMS5003;34710;35.798;139.446;2022-10-16T02:37:46;14;13;
48893;PMS5003;34710;35.798;139.446;2022-10-16T02:40:17;18;15;
48893;PMS5003;34710;35.798;139.446;2022-10-16T02:42:49;18;13;
48893;PMS5003;34710;35.798;139.446;2022-10-16T02:45:19;15;13;
48893;PMS5003;34710;35.798;139.446;2022-10-16T02:47:49;13;11;
48893;PMS5003;34710;35.798;139.446;2022-10-16T02:50:19;26;13;
48893;PMS5003;34710;35.798;139.446;2022-10-16T02:52:48;13;12;
48893;PMS5003;34710;35.798;139.446;2022-10-16T02:55:17;16;14;
48893;PMS5003;34710;35.798;139.446;2022-10-16T02:57:47;15;14;
48893;PMS5003;34710;35.798;139.446;2022-10-16T03:00:16;15;14;
48893;PMS5003;34710;35.798;139.446;2022-10-16T03:02:45;13;12;
48893;PMS5003;34710;35.798;139.446;2022-10-16T03:05:15;19;13;
48893;PMS5003;34710;35.798;139.446;2022-10-16T03:07:44;14;13;
48893;PMS5003;34710;35.798;139.446;2022-10-16T03:10:13;17;12;
48893;PMS5003;34710;35.798;139.446;2022-10-16T03:12:42;14;13;
48893;PMS5003;34710;35.798;139.446;2022-10-16T03:15:12;15;13;
48893;PMS5003;34710;35.798;139.446;2022-10-16T03:17:41;14;11;
48893;PMS5003;34710;35.798;139.446;2022-10-16T03:20:11;15;14;
48893;PMS5003;34710;35.798;139.446;2022-10-16T03:22:42;12;11;
48893;PMS5003;34710;35.798;139.446;2022-10-16T03:25:12;17;15;
48893;PMS5003;34710;35.798;139.446;2022-10-16T03:27:41;24;13;
48893;PMS5003;34710;35.798;139.446;2022-10-16T03:30:11;17;14;
48893;PMS5003;34710;35.798;139.446;2022-10-16T03:32:41;23;16;
48893;PMS5003;34710;35.798;139.446;2022-10-16T03:35:11;15;12;
48893;PMS5003;34710;35.798;139.446;2022-10-16T03:37:40;17;16;
48893;PMS5003;34710;35.798;139.446;2022-10-16T03:40:10;13;13;
48893;PMS5003;34710;35.798;139.446;2022-10-16T03:42:41;23;16;
48893;PMS5003;34710;35.798;139.446;2022-10-16T03:45:11;21;14;
48893;PMS5003;34710;35.798;139.446;2022-10-16T03:47:41;17;15;
48893;PMS5003;34710;35.798;139.446;2022-10-16T03:50:10;16;15;
48893;PMS5003;34710;35.798;139.446;2022-10-16T03:52:39;15;13;
48893;PMS5003;34710;35.798;139.446;2022-10-16T03:55:09;14;14;
48893;PMS5003;34710;35.798;139.446;2022-10-16T03:57:38;16;14;
48893;PMS5003;34710;35.798;139.446;2022-10-16T04:00:08;20;14;
48893;PMS5003;34710;35.798;139.446;2022-10-16T04:02:37;20;15;
48893;PMS5003;34710;35.798;139.446;2022-10-16T04:05:07;15;14;
48893;PMS5003;34710;35.798;139.446;2022-10-16T04:07:36;17;13;
48893;PMS5003;34710;35.798;139.446;2022-10-16T04:10:06;14;13;
48893;PMS5003;34710;35.798;139.446;2022-10-16T04:12:36;16;13;
48893;PMS5003;34710;35.798;139.446;2022-10-16T04:15:06;13;13;
48893;PMS5003;34710;35.798;139.446;2022-10-16T04:17:36;17;16;
48893;PMS5003;34710;35.798;139.446;2022-10-16T04:20:05;16;13;
48893;PMS5003;34710;35.798;139.446;2022-10-16T04:22:35;13;12;
48893;PMS5003;34710;35.798;139.446;2022-10-16T04:25:05;14;12;
48893;PMS5003;34710;35.798;139.446;2022-10-16T04:27:35;16;15;
48893;PMS5003;34710;35.798;139.446;2022-10-16T04:30:05;14;14;
48893;PMS5003;34710;35.798;139.446;2022-10-16T04:32:35;13;13;
48893;PMS5003;34710;35.798;139.446;2022-10-16T04:35:05;18;13;
48893;PMS5003;34710;35.798;139.446;2022-10-16T04:37:36;15;14;
48893;PMS5003;34710;35.798;139.446;2022-10-16T04:40:05;16;13;
48893;PMS5003;34710;35.798;139.446;2022-10-16T04:42:35;13;13;
48893;PMS5003;34710;35.798;139.446;2022-10-16T04:45:05;14;14;
48893;PMS5003;34710;35.798;139.446;2022-10-16T04:47:35;12;12;
48893;PMS5003;34710;35.798;139.446;2022-10-16T04:50:04;13;11;
48893;PMS5003;34710;35.798;139.446;2022-10-16T04:52:34;14;14;
48893;PMS5003;34710;35.798;139.446;2022-10-16T04:55:03;12;10;
48893;PMS5003;34710;35.798;139.446;2022-10-16T04:57:33;16;15;
48893;PMS5003;34710;35.798;139.446;2022-10-16T05:00:02;15;13;
48893;PMS5003;34710;35.798;139.446;2022-10-16T05:02:32;13;13;
48893;PMS5003;34710;35.798;139.446;2022-10-16T05:05:01;14;14;
48893;PMS5003;34710;35.798;139.446;2022-10-16T05:07:30;15;15;
48893;PMS5003;34710;35.798;139.446;2022-10-16T05:10:00;13;12;
48893;PMS5003;34710;35.798;139.446;2022-10-16T05:12:29;18;13;
48893;PMS5003;34710;35.798;139.446;2022-10-16T05:14:59;15;14;
48893;PMS5003;34710;35.798;139.446;2022-10-16T05:17:28;16;14;
48893;PMS5003;34710;35.798;139.446;2022-10-16T05:19:57;19;14;
48893;PMS5003;34710;35.798;139.446;2022-10-16T05:22:26;17;17;
48893;PMS5003;34710;35.798;139.446;2022-10-16T05:24:56;17;14;
48893;PMS5003;34710;35.798;139.446;2022-10-16T05:27:26;17;14;
48893;PMS5003;34710;35.798;139.446;2022-10-16T05:29:55;16;14;
48893;PMS5003;34710;35.798;139.446;2022-10-16T05:32:24;16;14;
48893;PMS5003;34710;35.798;139.446;2022-10-16T05:34:54;14;13;
48893;PMS5003;34710;35.798;139.446;2022-10-16T05:37:23;16;14;
48893;PMS5003;34710;35.798;139.446;2022-10-16T05:39:53;14;14;
48893;PMS5003;34710;35.798;139.446;2022-10-16T05:42:22;12;12;
48893;PMS5003;34710;35.798;139.446;2022-10-16T05:44:51;14;13;
48893;PMS5003;34710;35.798;139.446;2022-10-16T05:47:21;14;13;
48893;PMS5003;34710;35.798;139.446;2022-10-16T05:49:49;23;17;
48893;PMS5003;34710;35.798;139.446;2022-10-16T05:52:19;14;14;
48893;PMS5003;34710;35.798;139.446;2022-10-16T05:54:48;14;13;
48893;PMS5003;34710;35.798;139.446;2022-10-16T05:57:17;14;13;
48893;PMS5003;34710;35.798;139.446;2022-10-16T05:59:47;13;13;
48893;PMS5003;34710;35.798;139.446;2022-10-16T06:02:16;10;10;
48893;PMS5003;34710;35.798;139.446;2022-10-16T06:04:45;13;12;
48893;PMS5003;34710;35.798;139.446;2022-10-16T06:07:15;11;11;
48893;PMS5003;34710;35.798;139.446;2022-10-16T06:09:44;14;12;
48893;PMS5003;34710;35.798;139.446;2022-10-16T06:12:16;12;12;
48893;PMS5003;34710;35.798;139.446;2022-10-16T06:14:46;11;11;
48893;PMS5003;34710;35.798;139.446;2022-10-16T06:17:16;12;11;
48893;PMS5003;34710;35.798;139.446;2022-10-16T06:19:46;13;13;
48893;PMS5003;34710;35.798;139.446;2022-10-16T06:22:16;17;14;
48893;PMS5003;34710;35.798;139.446;2022-10-16T06:24:46;11;10;
48893;PMS5003;34710;35.798;139.446;2022-10-16T06:27:15;15;13;
48893;PMS5003;34710;35.798;139.446;2022-10-16T06:29:45;13;12;
48893;PMS5003;34710;35.798;139.446;2022-10-16T06:32:14;13;10;
48893;PMS5003;34710;35.798;139.446;2022-10-16T06:34:43;14;14;
48893;PMS5003;34710;35.798;139.446;2022-10-16T06:37:13;16;14;
48893;PMS5003;34710;35.798;139.446;2022-10-16T06:39:42;13;13;
48893;PMS5003;34710;35.798;139.446;2022-10-16T06:42:11;12;12;
48893;PMS5003;34710;35.798;139.446;2022-10-16T06:44:41;14;13;
48893;PMS5003;34710;35.798;139.446;2022-10-16T06:47:10;13;13;
48893;PMS5003;34710;35.798;139.446;2022-10-16T06:49:39;14;12;
48893;PMS5003;34710;35.798;139.446;2022-10-16T06:52:09;17;15;
48893;PMS5003;34710;35.798;139.446;2022-10-16T06:54:38;15;12;
48893;PMS5003;34710;35.798;139.446;2022-10-16T06:57:07;11;10;
48893;PMS5003;34710;35.798;139.446;2022-10-16T06:59:36;13;11;
48893;PMS5003;34710;35.798;139.446;2022-10-16T07:02:06;13;13;
48893;PMS5003;34710;35.798;139.446;2022-10-16T07:04:35;14;13;
48893;PMS5003;34710;35.798;139.446;2022-10-16T07:07:05;14;12;
48893;PMS5003;34710;35.798;139.446;2022-10-16T07:09:34;16;15;
48893;PMS5003;34710;35.798;139.446;2022-10-16T07:12:03;15;13;
48893;PMS5003;34710;35.798;139.446;2022-10-16T07:14:32;18;13;
48893;PMS5003;34710;35.798;139.446;2022-10-16T07:17:02;16;16;
48893;PMS5003;34710;35.798;139.446;2022-10-16T07:19:31;22;16;
48893;PMS5003;34710;35.798;139.446;2022-10-16T07:22:00;21;19;
48893;PMS5003;34710;35.798;139.446;2022-10-16T07:24:31;20;17;
48893;PMS5003;34710;35.798;139.446;2022-10-16T07:27:00;19;16;
48893;PMS5003;34710;35.798;139.446;2022-10-16T07:29:29;19;16;
48893;PMS5003;34710;35.798;139.446;2022-10-16T07:31:59;17;17;
48893;PMS5003;34710;35.798;139.446;2022-10-16T07:34:28;20;14;
48893;PMS5003;34710;35.798;139.446;2022-10-16T07:36:58;21;14;
48893;PMS5003;34710;35.798;139.446;2022-10-16T07:39:27;18;16;
48893;PMS5003;34710;35.798;139.446;2022-10-16T07:41:56;17;14;
48893;PMS5003;34710;35.798;139.446;2022-10-16T07:44:25;16;16;
48893;PMS5003;34710;35.798;139.446;2022-10-16T07:46:55;19;17;
48893;PMS5003;34710;35.798;139.446;2022-10-16T07:49:24;16;15;
48893;PMS5003;34710;35.798;139.446;2022-10-16T07:51:53;19;16;
48893;PMS5003;34710;35.798;139.446;2022-10-16T07:54:22;19;16;
48893;PMS5003;34710;35.798;139.446;2022-10-16T07:56:52;18;16;
48893;PMS5003;34710;35.798;139.446;2022-10-16T07:59:21;20;16;
48893;PMS5003;34710;35.798;139.446;2022-10-16T08:01:51;18;17;
48893;PMS5003;34710;35.798;139.446;2022-10-16T08:04:20;15;15;
48893;PMS5003;34710;35.798;139.446;2022-10-16T08:06:49;20;16;
48893;PMS5003;34710;35.798;139.446;2022-10-16T08:09:19;22;17;
48893;PMS5003;34710;35.798;139.446;2022-10-16T08:11:48;15;14;
48893;PMS5003;34710;35.798;139.446;2022-10-16T08:14:17;24;17;
48893;PMS5003;34710;35.798;139.446;2022-10-16T08:16:46;21;18;
48893;PMS5003;34710;35.798;139.446;2022-10-16T08:19:16;19;17;
48893;PMS5003;34710;35.798;139.446;2022-10-16T08:21:47;15;14;
48893;PMS5003;34710;35.798;139.446;2022-10-16T08:24:17;17;16;
48893;PMS5003;34710;35.798;139.446;2022-10-16T08:26:47;15;15;
48893;PMS5003;34710;35.798;139.446;2022-10-16T08:29:15;14;14;
48893;PMS5003;34710;35.798;139.446;2022-10-16T08:31:45;15;14;
48893;PMS5003;34710;35.798;139.446;2022-10-16T08:34:14;18;16;
48893;PMS5003;34710;35.798;139.446;2022-10-16T08:36:44;17;14;
48893;PMS5003;34710;35.798;139.446;2022-10-16T08:39:13;27;16;
48893;PMS5003;34710;35.798;139.446;2022-10-16T08:41:55;22;19;
48893;PMS5003;34710;35.798;139.446;2022-10-16T08:44:43;18;16;
48893;PMS5003;34710;35.798;139.446;2022-10-16T08:47:33;18;17;
48893;PMS5003;34710;35.798;139.446;2022-10-16T08:50:13;16;16;
48893;PMS5003;34710;35.798;139.446;2022-10-16T08:52:46;18;16;
48893;PMS5003;34710;35.798;139.446;2022-10-16T08:55:19;21;18;
48893;PMS5003;34710;35.798;139.446;2022-10-16T08:57:58;18;16;
48893;PMS5003;34710;35.798;139.446;2022-10-16T09:00:27;16;16;
48893;PMS5003;34710;35.798;139.446;2022-10-16T09:03:02;19;19;
48893;PMS5003;34710;35.798;139.446;2022-10-16T09:05:44;17;16;
48893;PMS5003;34710;35.798;139.446;2022-10-16T09:08:27;20;15;
48893;PMS5003;34710;35.798;139.446;2022-10-16T09:11:07;17;16;
48893;PMS5003;34710;35.798;139.446;2022-10-16T09:13:46;21;16;
48893;PMS5003;34710;35.798;139.446;2022-10-16T09:16:21;22;16;
48893;PMS5003;34710;35.798;139.446;2022-10-16T09:18:57;18;16;
48893;PMS5003;34710;35.798;139.446;2022-10-16T09:21:32;16;16;
48893;PMS5003;34710;35.798;139.446;2022-10-16T09:24:09;20;17;
48893;PMS5003;34710;35.798;139.446;2022-10-16T09:26:42;22;17;
48893;PMS5003;34710;35.798;139.446;2022-10-16T09:29:12;21;18;
48893;PMS5003;34710;35.798;139.446;2022-10-16T09:31:43;19;17;
48893;PMS5003;34710;35.798;139.446;2022-10-16T09:34:15;32;22;
48893;PMS5003;34710;35.798;139.446;2022-10-16T09:36:52;19;17;
48893;PMS5003;34710;35.798;139.446;2022-10-16T09:39:25;19;17;
48893;PMS5003;34710;35.798;139.446;2022-10-16T09:41:54;20;18;
48893;PMS5003;34710;35.798;139.446;2022-10-16T09:44:25;21;18;
48893;PMS5003;34710;35.798;139.446;2022-10-16T09:47:02;18;16;
48893;PMS5003;34710;35.798;139.446;2022-10-16T09:49:33;16;15;
48893;PMS5003;34710;35.798;139.446;2022-10-16T09:52:04;21;17;
48893;PMS5003;34710;35.798;139.446;2022-10-16T09:54:38;20;16;
48893;PMS5003;34710;35.798;139.446;2022-10-16T09:57:18;20;17;
48893;PMS5003;34710;35.798;139.446;2022-10-16T09:59:48;21;17;
48893;PMS5003;34710;35.798;139.446;2022-10-16T10:02:23;29;16;
48893;PMS5003;34710;35.798;139.446;2022-10-16T10:04:58;19;17;
48893;PMS5003;34710;35.798;139.446;2022-10-16T10:07:27;20;19;
48893;PMS5003;34710;35.798;139.446;2022-10-16T10:09:58;16;15;
48893;PMS5003;34710;35.798;139.446;2022-10-16T10:12:29;16;14;
48893;PMS5003;34710;35.798;139.446;2022-10-16T10:15:03;19;16;
48893;PMS5003;34710;35.798;139.446;2022-10-16T10:17:33;13;13;
48893;PMS5003;34710;35.798;139.446;2022-10-16T10:20:21;14;14;
48893;PMS5003;34710;35.798;139.446;2022-10-16T10:22:53;19;17;
48893;PMS5003;34710;35.798;139.446;2022-10-16T10:25:28;18;15;
48893;PMS5003;34710;35.798;139.446;2022-10-16T10:28:14;18;15;
48893;PMS5003;34710;35.798;139.446;2022-10-16T10:30:57;28;12;
48893;PMS5003;34710;35.798;139.446;2022-10-16T10:33:34;18;15;
48893;PMS5003;34710;35.798;139.446;2022-10-16T10:36:14;21;16;
48893;PMS5003;34710;35.798;139.446;2022-10-16T10:38:52;15;14;
48893;PMS5003;34710;35.798;139.446;2022-10-16T10:41:31;20;18;
48893;PMS5003;34710;35.798;139.446;2022-10-16T10:44:24;14;12;
48893;PMS5003;34710;35.798;139.446;2022-10-16T10:47:05;15;12;
48893;PMS5003;34710;35.798;139.446;2022-10-16T10:49:45;16;14;
48893;PMS5003;34710;35.798;139.446;2022-10-16T10:52:29;16;13;
48893;PMS5003;34710;35.798;139.446;2022-10-16T10:55:10;17;17;
48893;PMS5003;34710;35.798;139.446;2022-10-16T10:57:52;14;12;
48893;PMS5003;34710;35.798;139.446;2022-10-16T11:00:53;21;17;
48893;PMS5003;34710;35.798;139.446;2022-10-16T11:03:35;13;13;
48893;PMS5003;34710;35.798;139.446;2022-10-16T11:06:23;16;14;
48893;PMS5003;34710;35.798;139.446;2022-10-16T11:08:59;18;16;
48893;PMS5003;34710;35.798;139.446;2022-10-16T11:11:38;16;15;
48893;PMS5003;34710;35.798;139.446;2022-10-16T11:14:14;15;13;
48893;PMS5003;34710;35.798;139.446;2022-10-16T11:16:48;19;15;
48893;PMS5003;34710;35.798;139.446;2022-10-16T11:19:24;17;14;
48893;PMS5003;34710;35.798;139.446;2022-10-16T11:22:02;19;16;
48893;PMS5003;34710;35.798;139.446;2022-10-16T11:24:42;16;14;
48893;PMS5003;34710;35.798;139.446;2022-10-16T11:27:18;18;15;
48893;PMS5003;34710;35.798;139.446;2022-10-16T11:29:55;16;14;
48893;PMS5003;34710;35.798;139.446;2022-10-16T11:32:28;16;13;
48893;PMS5003;34710;35.798;139.446;2022-10-16T11:35:05;17;13;
48893;PMS5003;34710;35.798;139.446;2022-10-16T11:37:43;20;17;
48893;PMS5003;34710;35.798;139.446;2022-10-16T11:40:19;17;17;
48893;PMS5003;34710;35.798;139.446;2022-10-16T11:42:57;15;15;
48893;PMS5003;34710;35.798;139.446;2022-10-16T11:45:34;15;14;
48893;PMS5003;34710;35.798;139.446;2022-10-16T11:48:12;22;14;
48893;PMS5003;34710;35.798;139.446;2022-10-16T11:50:52;18;16;
48893;PMS5003;34710;35.798;139.446;2022-10-16T11:53:35;17;15;
48893;PMS5003;34710;35.798;139.446;2022-10-16T11:56:12;17;15;
48893;PMS5003;34710;35.798;139.446;2022-10-16T11:58:46;16;14;
48893;PMS5003;34710;35.798;139.446;2022-10-16T12:01:26;16;14;
48893;PMS5003;34710;35.798;139.446;2022-10-16T12:04:04;27;14;
48893;PMS5003;34710;35.798;139.446;2022-10-16T12:06:42;16;14;
48893;PMS5003;34710;35.798;139.446;2022-10-16T12:09:18;14;14;
48893;PMS5003;34710;35.798;139.446;2022-10-16T12:11:51;19;15;
48893;PMS5003;34710;35.798;139.446;2022-10-16T12:14:33;18;15;
48893;PMS5003;34710;35.798;139.446;2022-10-16T12:20:00;18;16;
48893;PMS5003;34710;35.798;139.446;2022-10-16T12:22:48;18;17;
48893;PMS5003;34710;35.798;139.446;2022-10-16T12:25:21;22;16;
48893;PMS5003;34710;35.798;139.446;2022-10-16T12:27:55;22;14;
48893;PMS5003;34710;35.798;139.446;2022-10-16T12:30:28;20;18;
48893;PMS5003;34710;35.798;139.446;2022-10-16T12:33:00;20;16;
48893;PMS5003;34710;35.798;139.446;2022-10-16T12:35:32;22;14;
48893;PMS5003;34710;35.798;139.446;2022-10-16T12:38:15;17;15;
48893;PMS5003;34710;35.798;139.446;2022-10-16T12:40:46;21;19;
48893;PMS5003;34710;35.798;139.446;2022-10-16T12:43:26;21;17;
48893;PMS5003;34710;35.798;139.446;2022-10-16T12:46:04;17;16;
48893;PMS5003;34710;35.798;139.446;2022-10-16T12:48:49;17;16;
48893;PMS5003;34710;35.798;139.446;2022-10-16T12:51:23;26;16;
48893;PMS5003;34710;35.798;139.446;2022-10-16T12:54:01;23;21;
48893;PMS5003;34710;35.798;139.446;2022-10-16T12:56:35;17;15;
48893;PMS5003;34710;35.798;139.446;2022-10-16T12:59:14;21;17;
48893;PMS5003;34710;35.798;139.446;2022-10-16T13:01:57;18;18;
48893;PMS5003;34710;35.798;139.446;2022-10-16T13:04:50;21;17;
48893;PMS5003;34710;35.798;139.446;2022-10-16T13:07:35;19;17;
48893;PMS5003;34710;35.798;139.446;2022-10-16T13:10:19;26;18;
48893;PMS5003;34710;35.798;139.446;2022-10-16T13:12:58;21;18;
48893;PMS5003;34710;35.798;139.446;2022-10-16T13:15:52;21;17;
48893;PMS5003;34710;35.798;139.446;2022-10-16T13:18:35;23;20;
48893;PMS5003;34710;35.798;139.446;2022-10-16T13:21:18;21;18;
48893;PMS5003;34710;35.798;139.446;2022-10-16T13:23:59;28;18;
48893;PMS5003;34710;35.798;139.446;2022-10-16T13:26:37;28;20;
48893;PMS5003;34710;35.798;139.446;2022-10-16T13:29:12;17;16;
48893;PMS5003;34710;35.798;139.446;2022-10-16T13:31:43;29;18;
48893;PMS5003;34710;35.798;139.446;2022-10-16T13:34:14;20;18;
48893;PMS5003;34710;35.798;139.446;2022-10-16T13:36:48;14;14;
48893;PMS5003;34710;35.798;139.446;2022-10-16T13:39:21;21;17;
48893;PMS5003;34710;35.798;139.446;2022-10-16T13:42:06;21;18;
48893;PMS5003;34710;35.798;139.446;2022-10-16T13:44:40;25;19;
48893;PMS5003;34710;35.798;139.446;2022-10-16T13:47:15;20;19;
48893;PMS5003;34710;35.798;139.446;2022-10-16T13:49:46;15;13;
48893;PMS5003;34710;35.798;139.446;2022-10-16T13:52:25;21;17;
48893;PMS5003;34710;35.798;139.446;2022-10-16T13:54:55;16;16;
48893;PMS5003;34710;35.798;139.446;2022-10-16T13:57:25;17;14;
48893;PMS5003;34710;35.798;139.446;2022-10-16T13:59:55;18;16;
48893;PMS5003;34710;35.798;139.446;2022-10-16T14:02:25;15;15;
48893;PMS5003;34710;35.798;139.446;2022-10-16T14:04:58;18;13;
48893;PMS5003;34710;35.798;139.446;2022-10-16T14:07:29;19;18;
48893;PMS5003;34710;35.798;139.446;2022-10-16T14:10:02;17;14;
48893;PMS5003;34710;35.798;139.446;2022-10-16T14:12:33;14;13;
48893;PMS5003;34710;35.798;139.446;2022-10-16T14:15:03;20;18;
48893;PMS5003;34710;35.798;139.446;2022-10-16T14:17:33;19;18;
48893;PMS5003;34710;35.798;139.446;2022-10-16T14:20:05;22;20;
48893;PMS5003;34710;35.798;139.446;2022-10-16T14:22:42;22;20;
48893;PMS5003;34710;35.798;139.446;2022-10-16T14:25:21;23;19;
48893;PMS5003;34710;35.798;139.446;2022-10-16T14:28:02;27;20;
48893;PMS5003;34710;35.798;139.446;2022-10-16T14:30:48;25;20;
48893;PMS5003;34710;35.798;139.446;2022-10-16T14:33:21;23;20;
48893;PMS5003;34710;35.798;139.446;2022-10-16T14:36:01;25;21;
48893;PMS5003;34710;35.798;139.446;2022-10-16T14:38:32;18;18;
48893;PMS5003;34710;35.798;139.446;2022-10-16T14:41:03;22;21;
48893;PMS5003;34710;35.798;139.446;2022-10-16T14:43:34;28;22;
48893;PMS5003;34710;35.798;139.446;2022-10-16T14:46:07;23;21;
48893;PMS5003;34710;35.798;139.446;2022-10-16T14:48:41;20;20;
48893;PMS5003;34710;35.798;139.446;2022-10-16T14:51:12;19;17;
48893;PMS5003;34710;35.798;139.446;2022-10-16T14:53:42;34;24;
48893;PMS5003;34710;35.798;139.446;2022-10-16T14:56:14;23;21;
48893;PMS5003;34710;35.798;139.446;2022-10-16T14:58:46;22;21;
48893;PMS5003;34710;35.798;139.446;2022-10-16T15:01:17;33;22;
48893;PMS5003;34710;35.798;139.446;2022-10-16T15:03:46;22;20;
48893;PMS5003;34710;35.798;139.446;2022-10-16T15:06:16;20;18;
48893;PMS5003;34710;35.798;139.446;2022-10-16T15:08:46;22;20;
48893;PMS5003;34710;35.798;139.446;2022-10-16T15:11:15;22;19;
48893;PMS5003;34710;35.798;139.446;2022-10-16T15:13:46;31;22;
48893;PMS5003;34710;35.798;139.446;2022-10-16T15:16:16;28;22;
48893;PMS5003;34710;35.798;139.446;2022-10-16T15:18:45;26;23;
48893;PMS5003;34710;35.798;139.446;2022-10-16T15:21:17;21;21;
48893;PMS5003;34710;35.798;139.446;2022-10-16T15:23:52;20;20;
48893;PMS5003;34710;35.798;139.446;2022-10-16T15:26:21;23;21;
48893;PMS5003;34710;35.798;139.446;2022-10-16T15:28:49;30;20;
48893;PMS5003;34710;35.798;139.446;2022-10-16T15:31:19;22;21;
48893;PMS5003;34710;35.798;139.446;2022-10-16T15:33:49;28;19;
48893;PMS5003;34710;35.798;139.446;2022-10-16T15:36:25;25;21;
48893;PMS5003;34710;35.798;139.446;2022-10-16T15:38:55;35;20;
48893;PMS5003;34710;35.798;139.446;2022-10-16T15:41:24;26;23;
48893;PMS5003;34710;35.798;139.446;2022-10-16T15:43:53;22;18;
48893;PMS5003;34710;35.798;139.446;2022-10-16T15:46:23;19;18;
48893;PMS5003;34710;35.798;139.446;2022-10-16T15:48:55;23;22;
48893;PMS5003;34710;35.798;139.446;2022-10-16T15:51:26;25;22;
48893;PMS5003;34710;35.798;139.446;2022-10-16T15:53:56;21;17;
48893;PMS5003;34710;35.798;139.446;2022-10-16T15:56:26;22;19;
48893;PMS5003;34710;35.798;139.446;2022-10-16T15:58:55;19;18;
48893;PMS5003;34710;35.798;139.446;2022-10-16T16:01:24;25;20;
48893;PMS5003;34710;35.798;139.446;2022-10-16T16:03:54;23;18;
48893;PMS5003;34710;35.798;139.446;2022-10-16T16:06:23;21;20;
48893;PMS5003;34710;35.798;139.446;2022-10-16T16:08:53;19;19;
48893;PMS5003;34710;35.798;139.446;2022-10-16T16:11:22;21;20;
48893;PMS5003;34710;35.798;139.446;2022-10-16T16:13:51;23;20;
48893;PMS5003;34710;35.798;139.446;2022-10-16T16:16:21;22;19;
48893;PMS5003;34710;35.798;139.446;2022-10-16T16:18:52;31;21;
48893;PMS5003;34710;35.798;139.446;2022-10-16T16:21:21;30;22;
48893;PMS5003;34710;35.798;139.446;2022-10-16T16:23:50;23;21;
48893;PMS5003;34710;35.798;139.446;2022-10-16T16:26:23;28;23;